Time;durP1;ratioP1;P1;durP2;ratioP2;P2;SDS_P1;SDS_P2;PMS_P1;PMS_P2;Temp;Humidity;BMP_temperature;BMP_pressure;BME280_temperature;BME280_humidity;BME280_pressure;Samples;Min_cycle;Max_cycle;Signal;HPM_P1;HPM_P2
2023/05/27 00:01:57;;;;;;;4.68;2.13;;;;;;;;;;5014341;28;20100;-84
2023/05/27 00:04:22;;;;;;;4.47;1.88;;;;;;;;;;4997176;28;20042;-83
2023/05/27 00:06:48;;;;;;;2.75;1.67;;;;;;;;;;4996971;28;20401;-84
2023/05/27 00:09:13;;;;;;;5.22;1.90;;;;;;;;;;4997031;28;20094;-83
2023/05/27 00:11:39;;;;;;;3.95;2.10;;;;;;;;;;4996762;28;20026;-83
2023/05/27 00:14:04;;;;;;;5.85;1.67;;;;;;;;;;5014467;28;20544;-83
2023/05/27 00:16:31;;;;;;;4.75;2.00;;;;;;;;;;5014285;28;20109;-84
2023/05/27 00:18:57;;;;;;;6.03;2.15;;;;;;;;;;4997103;28;20029;-83
2023/05/27 00:21:22;;;;;;;4.35;1.80;;;;;;;;;;5014212;28;20034;-83
2023/05/27 00:23:51;;;;;;;5.68;1.80;;;;;;;;;;4996518;28;20137;-84
2023/05/27 00:26:16;;;;;;;5.32;2.08;;;;;;;;;;4997003;28;20033;-84
2023/05/27 00:28:42;;;;;;;3.40;2.20;;;;;;;;;;4996608;28;20426;-84
2023/05/27 00:31:07;;;;;;;3.83;1.58;;;;;;;;;;4996289;28;20076;-84
2023/05/27 00:33:32;;;;;;;5.00;1.83;;;;;;;;;;4980107;28;20125;-83
2023/05/27 00:35:58;;;;;;;4.43;2.05;;;;;;;;;;5013793;28;20062;-83
2023/05/27 00:38:23;;;;;;;3.05;1.95;;;;;;;;;;4996313;28;20030;-83
2023/05/27 00:40:49;;;;;;;5.78;1.75;;;;;;;;;;5013513;28;20030;-83
2023/05/27 00:43:15;;;;;;;4.53;2.03;;;;;;;;;;4996080;28;20022;-84
2023/05/27 00:45:40;;;;;;;6.45;2.30;;;;;;;;;;4963809;28;20404;-83
2023/05/27 00:48:06;;;;;;;9.45;1.80;;;;;;;;;;4996349;28;20030;-83
2023/05/27 00:50:31;;;;;;;5.45;2.08;;;;;;;;;;4980136;28;20452;-83
2023/05/27 00:52:57;;;;;;;4.43;2.10;;;;;;;;;;5014118;28;20482;-83
2023/05/27 00:55:26;;;;;;;5.78;1.80;;;;;;;;;;4979971;28;20045;-84
2023/05/27 00:57:54;;;;;;;4.60;1.90;;;;;;;;;;4979708;28;20021;-84
2023/05/27 01:00:20;;;;;;;4.43;1.83;;;;;;;;;;4996300;28;20041;-83
2023/05/27 01:02:45;;;;;;;6.05;1.83;;;;;;;;;;4980125;28;20025;-83
2023/05/27 01:05:13;;;;;;;4.45;1.95;;;;;;;;;;4996101;28;20086;-84
2023/05/27 01:07:46;;;;;;;4.22;1.90;;;;;;;;;;5013465;28;20033;-83
2023/05/27 01:10:29;;;;;;;6.43;2.33;;;;;;;;;;4996455;28;20022;-84
2023/05/27 01:13:17;;;;;;;2.47;1.55;;;;;;;;;;4995774;28;20121;-84
2023/05/27 01:15:43;;;;;;;6.07;2.22;;;;;;;;;;4995953;28;20017;-83
2023/05/27 01:18:09;;;;;;;4.95;1.70;;;;;;;;;;5013381;28;20085;-84
2023/05/27 01:20:40;;;;;;;4.30;1.80;;;;;;;;;;4995968;28;20045;-84
2023/05/27 01:23:07;;;;;;;6.13;1.95;;;;;;;;;;4996640;28;20105;-84
2023/05/27 01:25:33;;;;;;;4.82;1.60;;;;;;;;;;4979450;28;20029;-84
2023/05/27 01:27:58;;;;;;;3.60;1.77;;;;;;;;;;5013546;28;20503;-84
2023/05/27 01:30:24;;;;;;;3.17;1.60;;;;;;;;;;5013275;28;20040;-83
2023/05/27 01:32:57;;;;;;;3.25;1.95;;;;;;;;;;4979132;28;20029;-83
2023/05/27 01:35:43;;;;;;;3.70;2.03;;;;;;;;;;4995611;28;20034;-83
2023/05/27 01:38:10;;;;;;;3.33;1.77;;;;;;;;;;4979110;28;20033;-83
2023/05/27 01:40:38;;;;;;;2.55;1.60;;;;;;;;;;4976252;28;20057;-84
2023/05/27 01:43:05;;;;;;;2.53;1.52;;;;;;;;;;4977906;28;20133;-84
2023/05/27 01:45:31;;;;;;;4.13;1.90;;;;;;;;;;4963748;28;20401;-83
2023/05/27 01:47:56;;;;;;;3.40;1.70;;;;;;;;;;4963676;28;20105;-83
2023/05/27 01:50:22;;;;;;;4.13;1.55;;;;;;;;;;4980043;28;20474;-82
2023/05/27 01:52:47;;;;;;;3.35;1.55;;;;;;;;;;4997539;28;20034;-83
2023/05/27 01:55:12;;;;;;;2.92;1.60;;;;;;;;;;4979860;28;20138;-83
2023/05/27 01:57:38;;;;;;;5.93;1.80;;;;;;;;;;4980216;28;20033;-83
2023/05/27 02:00:09;;;;;;;6.00;2.13;;;;;;;;;;4980064;28;20030;-82
2023/05/27 02:02:34;;;;;;;2.67;1.80;;;;;;;;;;4964215;28;20109;-83
2023/05/27 02:05:00;;;;;;;5.00;1.85;;;;;;;;;;4964260;28;20419;-83
2023/05/27 02:07:26;;;;;;;3.83;1.73;;;;;;;;;;4996895;28;20046;-84
2023/05/27 02:09:52;;;;;;;5.82;1.90;;;;;;;;;;4997029;28;20055;-84
2023/05/27 02:12:17;;;;;;;2.97;1.70;;;;;;;;;;4997187;28;20382;-85
2023/05/27 02:14:44;;;;;;;5.07;1.55;;;;;;;;;;4979505;28;20035;-85
2023/05/27 02:17:10;;;;;;;3.72;1.90;;;;;;;;;;4979766;28;20033;-84
2023/05/27 02:19:35;;;;;;;4.97;2.00;;;;;;;;;;4979349;28;20026;-84
2023/05/27 02:22:01;;;;;;;4.82;1.70;;;;;;;;;;4996703;28;20090;-84
2023/05/27 02:24:26;;;;;;;2.78;1.40;;;;;;;;;;4979327;28;20031;-83
2023/05/27 02:26:52;;;;;;;3.35;1.70;;;;;;;;;;4979035;28;20089;-83
2023/05/27 02:29:17;;;;;;;4.75;1.90;;;;;;;;;;4996920;28;20026;-83
2023/05/27 02:31:42;;;;;;;3.53;1.67;;;;;;;;;;4996904;28;20389;-84
2023/05/27 02:34:08;;;;;;;3.88;1.90;;;;;;;;;;4996787;28;20041;-84
2023/05/27 02:36:34;;;;;;;4.38;2.00;;;;;;;;;;4979300;28;20030;-83
2023/05/27 02:39:00;;;;;;;2.80;1.65;;;;;;;;;;4970219;28;20046;-83
2023/05/27 02:41:26;;;;;;;3.58;1.85;;;;;;;;;;4983015;28;20146;-83
2023/05/27 02:43:51;;;;;;;3.88;1.92;;;;;;;;;;5016036;28;20058;-84
2023/05/27 02:46:17;;;;;;;3.22;1.50;;;;;;;;;;5016185;28;20026;-84
2023/05/27 02:48:42;;;;;;;5.65;1.75;;;;;;;;;;5016359;28;20385;-84
2023/05/27 02:51:08;;;;;;;3.10;1.70;;;;;;;;;;4982210;28;20030;-84
2023/05/27 02:53:33;;;;;;;4.55;1.90;;;;;;;;;;4982021;28;20034;-85
2023/05/27 02:55:58;;;;;;;3.75;1.52;;;;;;;;;;5015906;28;20457;-83
2023/05/27 02:58:24;;;;;;;4.35;1.70;;;;;;;;;;5015930;28;20037;-85
2023/05/27 03:00:49;;;;;;;2.63;1.60;;;;;;;;;;5015917;28;20454;-83
2023/05/27 03:03:15;;;;;;;3.60;1.48;;;;;;;;;;5015597;28;20365;-82
2023/05/27 03:05:40;;;;;;;2.33;1.70;;;;;;;;;;4998812;28;20037;-84
2023/05/27 03:08:06;;;;;;;4.25;1.63;;;;;;;;;;5015518;28;20030;-83
2023/05/27 03:10:32;;;;;;;2.25;1.75;;;;;;;;;;5015855;28;20030;-83
2023/05/27 03:12:57;;;;;;;4.90;2.10;;;;;;;;;;4981923;28;20030;-83
2023/05/27 03:15:23;;;;;;;3.58;1.70;;;;;;;;;;4997910;28;20026;-84
2023/05/27 03:17:48;;;;;;;3.92;1.48;;;;;;;;;;4998222;28;20026;-83
2023/05/27 03:20:16;;;;;;;3.72;1.73;;;;;;;;;;4997687;28;20034;-85
2023/05/27 03:22:42;;;;;;;2.47;1.50;;;;;;;;;;4998203;28;20037;-86
2023/05/27 03:25:08;;;;;;;2.60;1.40;;;;;;;;;;5015533;28;20037;-84
2023/05/27 03:27:33;;;;;;;2.33;1.55;;;;;;;;;;4997682;28;20467;-84
2023/05/27 03:29:59;;;;;;;3.03;1.90;;;;;;;;;;4997682;28;20125;-84
2023/05/27 03:32:24;;;;;;;3.22;1.75;;;;;;;;;;4981611;28;20034;-84
2023/05/27 03:34:50;;;;;;;3.28;1.48;;;;;;;;;;4998112;28;20038;-84
2023/05/27 03:37:15;;;;;;;3.67;1.70;;;;;;;;;;4981075;28;20452;-84
2023/05/27 03:39:41;;;;;;;3.83;1.70;;;;;;;;;;5014843;28;20049;-83
2023/05/27 03:42:06;;;;;;;3.40;1.70;;;;;;;;;;4997432;28;20037;-84
2023/05/27 03:44:32;;;;;;;5.13;1.67;;;;;;;;;;4997600;28;20173;-84
2023/05/27 03:46:57;;;;;;;3.13;1.60;;;;;;;;;;5014818;28;20029;-85
2023/05/27 03:49:23;;;;;;;3.17;1.60;;;;;;;;;;4981186;28;20061;-83
2023/05/27 03:51:48;;;;;;;4.53;1.67;;;;;;;;;;4997430;28;20037;-84
2023/05/27 03:54:14;;;;;;;3.42;1.67;;;;;;;;;;4997181;28;20085;-84
2023/05/27 03:56:39;;;;;;;4.00;1.30;;;;;;;;;;4981176;28;20034;-84
2023/05/27 03:59:06;;;;;;;4.13;1.70;;;;;;;;;;5014769;28;20037;-84
2023/05/27 04:01:31;;;;;;;3.85;1.80;;;;;;;;;;4981075;28;20085;-84
2023/05/27 04:03:57;;;;;;;3.13;1.40;;;;;;;;;;4997071;28;20025;-84
2023/05/27 04:06:22;;;;;;;3.63;1.35;;;;;;;;;;4996826;28;20500;-84
2023/05/27 04:08:48;;;;;;;3.58;1.70;;;;;;;;;;5014628;28;20034;-83
2023/05/27 04:11:13;;;;;;;3.97;1.60;;;;;;;;;;5015022;28;20026;-83
2023/05/27 04:13:39;;;;;;;2.88;1.38;;;;;;;;;;4997005;28;20485;-83
2023/05/27 04:16:05;;;;;;;4.00;1.40;;;;;;;;;;4980837;28;20049;-81
2023/05/27 04:18:30;;;;;;;5.65;1.95;;;;;;;;;;4997419;28;20477;-84
2023/05/27 04:20:58;;;;;;;3.40;1.60;;;;;;;;;;4997772;28;20065;-84
2023/05/27 04:23:23;;;;;;;3.45;1.80;;;;;;;;;;4997277;28;20031;-84
2023/05/27 04:25:49;;;;;;;3.17;1.67;;;;;;;;;;4996895;28;20056;-84
2023/05/27 04:28:15;;;;;;;4.30;1.80;;;;;;;;;;5014373;28;20033;-84
2023/05/27 04:30:41;;;;;;;3.67;1.70;;;;;;;;;;4980578;28;20487;-84
2023/05/27 04:33:07;;;;;;;3.33;1.63;;;;;;;;;;4980525;28;20056;-83
2023/05/27 04:35:33;;;;;;;4.90;1.65;;;;;;;;;;4996585;28;20034;-84
2023/05/27 04:38:00;;;;;;;3.85;1.50;;;;;;;;;;4979988;28;20444;-84
2023/05/27 04:40:26;;;;;;;3.03;1.65;;;;;;;;;;5013773;28;20137;-84
2023/05/27 04:42:52;;;;;;;5.05;1.42;;;;;;;;;;5014024;28;20072;-84
2023/05/27 04:45:18;;;;;;;3.95;1.58;;;;;;;;;;4996140;28;20034;-84
2023/05/27 04:47:44;;;;;;;1.90;1.50;;;;;;;;;;4996175;28;20504;-85
2023/05/27 04:50:10;;;;;;;2.63;1.40;;;;;;;;;;5013896;28;20021;-82
2023/05/27 04:52:40;;;;;;;2.85;1.58;;;;;;;;;;4980182;28;20034;-84
2023/05/27 04:55:07;;;;;;;3.90;1.98;;;;;;;;;;4997039;28;20165;-82
2023/05/27 04:57:33;;;;;;;6.13;2.13;;;;;;;;;;5013828;28;20026;-81
2023/05/27 05:00:18;;;;;;;4.75;2.17;;;;;;;;;;4996516;28;20503;-83
2023/05/27 05:02:46;;;;;;;5.07;1.75;;;;;;;;;;4996808;28;20397;-82
2023/05/27 05:05:11;;;;;;;6.22;2.20;;;;;;;;;;4981939;28;20044;-83
2023/05/27 05:07:39;;;;;;;5.22;2.30;;;;;;;;;;5014202;28;20021;-83
2023/05/27 05:10:08;;;;;;;3.75;1.83;;;;;;;;;;4996796;28;20540;-83
2023/05/27 05:12:35;;;;;;;5.15;2.38;;;;;;;;;;4996420;28;20096;-82
2023/05/27 05:15:00;;;;;;;6.05;2.28;;;;;;;;;;4996288;28;20032;-82
2023/05/27 05:17:26;;;;;;;6.07;2.75;;;;;;;;;;5012781;28;20548;-81
2023/05/27 05:19:52;;;;;;;7.55;2.30;;;;;;;;;;4996309;28;20546;-82
2023/05/27 05:22:22;;;;;;;3.35;1.92;;;;;;;;;;4996662;28;20465;-83
2023/05/27 05:24:49;;;;;;;3.53;2.10;;;;;;;;;;4997027;28;20041;-81
2023/05/27 05:27:14;;;;;;;4.53;2.10;;;;;;;;;;4995344;28;20451;-81
2023/05/27 05:29:40;;;;;;;9.40;2.47;;;;;;;;;;5012944;28;20114;-82
2023/05/27 05:32:06;;;;;;;5.32;2.50;;;;;;;;;;4995624;28;20424;-82
2023/05/27 05:34:31;;;;;;;3.88;1.85;;;;;;;;;;4980088;28;20437;-82
2023/05/27 05:36:57;;;;;;;5.88;2.65;;;;;;;;;;5013365;28;20026;-83
2023/05/27 05:39:22;;;;;;;5.10;2.03;;;;;;;;;;4995760;28;20053;-83
2023/05/27 05:41:48;;;;;;;6.53;2.28;;;;;;;;;;4996200;28;20029;-83
2023/05/27 05:44:14;;;;;;;4.70;2.28;;;;;;;;;;4996358;28;20162;-84
2023/05/27 05:46:40;;;;;;;5.20;2.10;;;;;;;;;;4995732;28;20034;-84
2023/05/27 05:49:05;;;;;;;6.18;2.10;;;;;;;;;;4996103;28;20049;-84
2023/05/27 05:51:31;;;;;;;6.88;2.38;;;;;;;;;;5013591;28;20029;-84
2023/05/27 05:53:57;;;;;;;3.85;2.33;;;;;;;;;;5013448;28;20113;-84
2023/05/27 05:56:22;;;;;;;5.97;2.03;;;;;;;;;;4995821;28;20034;-84
2023/05/27 05:58:48;;;;;;;5.10;2.05;;;;;;;;;;4996235;28;20038;-84
2023/05/27 06:01:13;;;;;;;4.82;2.33;;;;;;;;;;4996068;28;20038;-84
2023/05/27 06:03:39;;;;;;;4.30;2.10;;;;;;;;;;4995623;28;20042;-84
2023/05/27 06:06:04;;;;;;;4.18;2.00;;;;;;;;;;4995670;28;20037;-84
2023/05/27 06:08:30;;;;;;;6.00;2.17;;;;;;;;;;4979286;28;20030;-84
2023/05/27 06:10:55;;;;;;;5.15;2.03;;;;;;;;;;4995677;28;20033;-83
2023/05/27 06:13:21;;;;;;;7.00;2.38;;;;;;;;;;4995475;28;20054;-83
2023/05/27 06:15:46;;;;;;;4.70;1.90;;;;;;;;;;5013001;28;20041;-84
2023/05/27 06:18:11;;;;;;;5.05;2.15;;;;;;;;;;4995471;28;20041;-84
2023/05/27 06:20:37;;;;;;;3.67;1.80;;;;;;;;;;5012889;28;20116;-83
2023/05/27 06:23:02;;;;;;;3.38;1.85;;;;;;;;;;4995742;28;20049;-84
2023/05/27 06:25:28;;;;;;;5.38;2.20;;;;;;;;;;5012974;28;20034;-83
2023/05/27 06:27:54;;;;;;;7.10;1.92;;;;;;;;;;4978449;28;20110;-82
2023/05/27 06:30:20;;;;;;;4.13;2.00;;;;;;;;;;4996998;28;20132;-82
2023/05/27 06:32:45;;;;;;;5.03;1.98;;;;;;;;;;4985982;28;20124;-80
2023/05/27 06:35:10;;;;;;;6.72;2.03;;;;;;;;;;5017250;28;20392;-80
2023/05/27 06:37:36;;;;;;;7.63;2.58;;;;;;;;;;4999036;28;20113;-79
2023/05/27 06:40:02;;;;;;;9.05;1.85;;;;;;;;;;4999128;28;20129;-79
2023/05/27 06:42:27;;;;;;;4.97;2.03;;;;;;;;;;4999695;28;20034;-81
2023/05/27 06:44:52;;;;;;;6.40;2.13;;;;;;;;;;5017740;28;20480;-81
2023/05/27 06:47:18;;;;;;;5.70;2.40;;;;;;;;;;5017000;28;20041;-80
2023/05/27 06:49:43;;;;;;;11.20;2.58;;;;;;;;;;5016957;28;20026;-81
2023/05/27 06:52:09;;;;;;;4.70;2.30;;;;;;;;;;4999572;28;20025;-81
2023/05/27 06:54:36;;;;;;;6.82;2.10;;;;;;;;;;5015604;28;20388;-82
2023/05/27 06:57:01;;;;;;;5.50;2.10;;;;;;;;;;4998721;28;20046;-81
2023/05/27 06:59:26;;;;;;;5.45;2.15;;;;;;;;;;4998783;28;20022;-81
2023/05/27 07:01:52;;;;;;;7.30;2.20;;;;;;;;;;4998459;28;20104;-81
2023/05/27 07:04:18;;;;;;;6.30;2.25;;;;;;;;;;5016023;28;20069;-81
2023/05/27 07:06:43;;;;;;;5.90;1.90;;;;;;;;;;5015650;28;20030;-80
2023/05/27 07:09:09;;;;;;;7.75;2.20;;;;;;;;;;5015913;28;20400;-82
2023/05/27 07:11:35;;;;;;;9.70;2.10;;;;;;;;;;4998328;28;20096;-79
2023/05/27 07:14:00;;;;;;;8.88;2.45;;;;;;;;;;5016064;28;20096;-80
2023/05/27 07:16:26;;;;;;;8.18;2.25;;;;;;;;;;5015762;28;20395;-80
2023/05/27 07:18:51;;;;;;;27.25;6.40;;;;;;;;;;4998193;28;20030;-79
2023/05/27 07:21:17;;;;;;;29.63;7.47;;;;;;;;;;4997937;28;20445;-80
2023/05/27 07:23:42;;;;;;;16.23;4.75;;;;;;;;;;4998804;28;20034;-80
2023/05/27 07:26:07;;;;;;;22.48;4.72;;;;;;;;;;5015859;28;20113;-81
2023/05/27 07:28:33;;;;;;;19.80;3.78;;;;;;;;;;4997887;28;20033;-81
2023/05/27 07:30:58;;;;;;;13.00;3.60;;;;;;;;;;4981966;28;20061;-81
2023/05/27 07:33:23;;;;;;;13.38;3.53;;;;;;;;;;4997633;28;20046;-82
2023/05/27 07:35:49;;;;;;;13.00;3.28;;;;;;;;;;5014986;28;20034;-81
2023/05/27 07:38:14;;;;;;;8.73;3.58;;;;;;;;;;5015695;28;20029;-80
2023/05/27 07:40:40;;;;;;;10.43;3.33;;;;;;;;;;4997009;28;20053;-80
2023/05/27 07:43:05;;;;;;;21.13;3.67;;;;;;;;;;4981102;28;20033;-80
2023/05/27 07:45:31;;;;;;;13.50;3.30;;;;;;;;;;5014757;28;20108;-81
2023/05/27 07:47:56;;;;;;;14.48;3.70;;;;;;;;;;4997036;28;20030;-81
2023/05/27 07:50:22;;;;;;;15.70;3.33;;;;;;;;;;5014674;28;20120;-81
2023/05/27 07:52:47;;;;;;;9.68;3.20;;;;;;;;;;4997311;28;20033;-81
2023/05/27 07:55:13;;;;;;;10.77;3.42;;;;;;;;;;5014738;28;20058;-81
2023/05/27 07:57:38;;;;;;;8.20;3.08;;;;;;;;;;5014888;28;20057;-80
2023/05/27 08:00:07;;;;;;;6.55;2.88;;;;;;;;;;5015400;28;20030;-81
2023/05/27 08:02:33;;;;;;;8.73;2.80;;;;;;;;;;4997778;28;20025;-82
2023/05/27 08:04:59;;;;;;;13.95;2.92;;;;;;;;;;5015473;28;20037;-82
2023/05/27 08:07:24;;;;;;;7.13;2.58;;;;;;;;;;4997335;28;20532;-86
2023/05/27 08:09:51;;;;;;;9.80;3.20;;;;;;;;;;4996709;28;20026;-82
2023/05/27 08:12:17;;;;;;;11.45;2.53;;;;;;;;;;4996861;28;20030;-82
2023/05/27 08:14:42;;;;;;;8.52;2.88;;;;;;;;;;4994829;28;20556;-82
2023/05/27 08:17:07;;;;;;;8.38;2.60;;;;;;;;;;4996701;28;20518;-82
2023/05/27 08:19:33;;;;;;;10.45;2.72;;;;;;;;;;4980290;28;20033;-82
2023/05/27 08:21:58;;;;;;;7.80;2.60;;;;;;;;;;4980256;28;20029;-81
2023/05/27 08:24:24;;;;;;;7.35;2.55;;;;;;;;;;4980410;28;20033;-82
2023/05/27 08:26:50;;;;;;;8.98;2.72;;;;;;;;;;4996283;28;20434;-82
2023/05/27 08:29:16;;;;;;;4.82;2.17;;;;;;;;;;4980337;28;20048;-82
2023/05/27 08:31:41;;;;;;;10.73;2.42;;;;;;;;;;5013800;28;20022;-82
2023/05/27 08:34:06;;;;;;;5.97;2.50;;;;;;;;;;4996415;28;20463;-82
2023/05/27 08:36:32;;;;;;;9.60;2.58;;;;;;;;;;5014463;28;20043;-82
2023/05/27 08:38:58;;;;;;;6.32;2.50;;;;;;;;;;5013915;28;20053;-81
2023/05/27 08:41:26;;;;;;;9.98;2.55;;;;;;;;;;4980720;28;20034;-81
2023/05/27 08:43:52;;;;;;;4.95;2.10;;;;;;;;;;4979383;28;20029;-81
2023/05/27 08:46:18;;;;;;;9.98;2.80;;;;;;;;;;4996402;28;20532;-80
2023/05/27 08:48:44;;;;;;;10.57;2.70;;;;;;;;;;4996373;28;20052;-81
2023/05/27 08:51:10;;;;;;;6.57;2.35;;;;;;;;;;5013563;28;20449;-80
2023/05/27 08:53:35;;;;;;;6.05;2.10;;;;;;;;;;4996121;28;20104;-80
2023/05/27 08:56:01;;;;;;;9.05;2.75;;;;;;;;;;4995864;28;20033;-81
2023/05/27 08:58:27;;;;;;;7.57;2.58;;;;;;;;;;4995815;28;20060;-81
2023/05/27 09:00:52;;;;;;;6.53;2.50;;;;;;;;;;4979689;28;20017;-81
2023/05/27 09:03:19;;;;;;;11.70;2.47;;;;;;;;;;5013407;28;20034;-81
2023/05/27 09:05:44;;;;;;;4.10;2.15;;;;;;;;;;4996123;28;20045;-81
2023/05/27 09:08:10;;;;;;;7.47;2.90;;;;;;;;;;5013405;28;20037;-80
2023/05/27 09:10:37;;;;;;;6.10;2.65;;;;;;;;;;4979903;28;20033;-80
2023/05/27 09:13:03;;;;;;;7.75;2.90;;;;;;;;;;4996476;28;20393;-81
2023/05/27 09:15:31;;;;;;;7.97;2.80;;;;;;;;;;5011531;28;20037;-81
2023/05/27 09:17:56;;;;;;;7.95;3.03;;;;;;;;;;4996622;28;20481;-79
2023/05/27 09:20:26;;;;;;;7.95;2.75;;;;;;;;;;5013477;28;20040;-81
2023/05/27 09:23:00;;;;;;;11.82;3.45;;;;;;;;;;5013250;28;20054;-82
2023/05/27 09:25:26;;;;;;;8.57;3.55;;;;;;;;;;5013326;28;20469;-83
2023/05/27 09:27:51;;;;;;;20.67;5.47;;;;;;;;;;5013056;28;20045;-81
2023/05/27 09:30:19;;;;;;;28.52;6.22;;;;;;;;;;4995590;28;20544;-81
2023/05/27 09:32:45;;;;;;;16.13;4.15;;;;;;;;;;4995295;28;20467;-81
2023/05/27 09:35:11;;;;;;;14.18;4.22;;;;;;;;;;4995424;28;20124;-81
2023/05/27 09:37:37;;;;;;;15.32;3.90;;;;;;;;;;4995456;28;20072;-81
2023/05/27 09:40:12;;;;;;;17.30;4.07;;;;;;;;;;4995331;28;20054;-80
2023/05/27 09:42:45;;;;;;;17.08;4.13;;;;;;;;;;4995640;28;20040;-81
2023/05/27 09:45:15;;;;;;;13.05;3.65;;;;;;;;;;4993554;28;20455;-81
2023/05/27 09:47:51;;;;;;;12.63;4.00;;;;;;;;;;4979157;28;20034;-80
2023/05/27 09:50:18;;;;;;;16.48;3.75;;;;;;;;;;4995388;28;20465;-80
2023/05/27 09:52:44;;;;;;;13.20;4.03;;;;;;;;;;4995513;28;20030;-81
2023/05/27 09:55:12;;;;;;;12.45;3.50;;;;;;;;;;4995238;28;20056;-81
2023/05/27 09:57:38;;;;;;;14.18;3.85;;;;;;;;;;4995668;28;20025;-81
2023/05/27 10:00:26;;;;;;;8.18;3.53;;;;;;;;;;4996029;28;20033;-82
2023/05/27 10:02:51;;;;;;;11.10;3.50;;;;;;;;;;4997955;28;20038;-81
2023/05/27 10:05:17;;;;;;;11.75;3.78;;;;;;;;;;5016759;28;20033;-83
2023/05/27 10:07:45;;;;;;;6.93;2.90;;;;;;;;;;4983358;28;20398;-82
2023/05/27 10:10:12;;;;;;;8.85;3.42;;;;;;;;;;4983226;28;20037;-82
2023/05/27 10:12:42;;;;;;;7.80;2.97;;;;;;;;;;5016907;28;20046;-81
2023/05/27 10:15:08;;;;;;;6.25;2.95;;;;;;;;;;4982710;28;20030;-81
2023/05/27 10:18:01;;;;;;;9.93;3.25;;;;;;;;;;5016952;28;20036;-81
2023/05/27 10:20:33;;;;;;;10.85;3.30;;;;;;;;;;4996453;28;20052;-81
2023/05/27 10:23:15;;;;;;;7.55;2.85;;;;;;;;;;4999541;28;20049;-81
2023/05/27 10:25:52;;;;;;;9.98;2.80;;;;;;;;;;4999047;28;20374;-82
2023/05/27 10:28:32;;;;;;;6.68;2.55;;;;;;;;;;4983013;28;20473;-80
2023/05/27 10:31:07;;;;;;;9.02;3.03;;;;;;;;;;5016735;28;20033;-81
2023/05/27 10:33:40;;;;;;;9.38;2.92;;;;;;;;;;4999164;28;20038;-82
2023/05/27 10:36:17;;;;;;;8.00;3.40;;;;;;;;;;4968494;28;20040;-82
2023/05/27 10:38:43;;;;;;;7.07;2.83;;;;;;;;;;4999074;28;20022;-82
2023/05/27 10:41:09;;;;;;;9.93;2.83;;;;;;;;;;4999375;28;20065;-82
2023/05/27 10:43:35;;;;;;;10.50;2.92;;;;;;;;;;5016437;28;20474;-82
2023/05/27 10:46:08;;;;;;;7.00;2.83;;;;;;;;;;4999122;28;20053;-81
2023/05/27 10:48:34;;;;;;;7.72;2.97;;;;;;;;;;4982987;28;20037;-82
2023/05/27 10:50:59;;;;;;;10.52;2.70;;;;;;;;;;4982625;28;20026;-82
2023/05/27 10:53:26;;;;;;;10.95;3.17;;;;;;;;;;4982551;28;20034;-81
2023/05/27 10:55:52;;;;;;;7.78;2.85;;;;;;;;;;4966296;28;20518;-82
2023/05/27 10:58:18;;;;;;;8.05;3.10;;;;;;;;;;5016366;28;20026;-83
2023/05/27 11:00:46;;;;;;;5.72;2.53;;;;;;;;;;4998790;28;20049;-83
2023/05/27 11:03:24;;;;;;;5.97;2.70;;;;;;;;;;4998691;28;20109;-82
2023/05/27 11:06:03;;;;;;;11.68;2.97;;;;;;;;;;4999233;28;20026;-83
2023/05/27 11:08:32;;;;;;;5.85;2.63;;;;;;;;;;5016429;28;20380;-83
2023/05/27 11:11:02;;;;;;;9.68;2.95;;;;;;;;;;4982474;28;20029;-83
2023/05/27 11:13:34;;;;;;;12.02;2.88;;;;;;;;;;4999428;28;20081;-82
2023/05/27 11:16:01;;;;;;;12.10;3.22;;;;;;;;;;4998469;28;20036;-83
2023/05/27 11:18:44;;;;;;;7.93;2.95;;;;;;;;;;4998167;28;20041;-83
2023/05/27 11:21:11;;;;;;;8.52;3.22;;;;;;;;;;4981821;28;20032;-82
2023/05/27 11:23:45;;;;;;;6.10;2.60;;;;;;;;;;4981834;28;20076;-82
2023/05/27 11:26:15;;;;;;;6.18;2.50;;;;;;;;;;4998523;28;20059;-82
2023/05/27 11:28:48;;;;;;;5.93;2.40;;;;;;;;;;4998294;28;20021;-81
2023/05/27 11:31:14;;;;;;;13.33;4.03;;;;;;;;;;4999138;28;20033;-81
2023/05/27 11:33:42;;;;;;;16.85;2.55;;;;;;;;;;4999973;28;20311;-81
2023/05/27 11:36:11;;;;;;;7.03;2.53;;;;;;;;;;4983490;28;20033;-81
2023/05/27 11:39:02;;;;;;;7.25;2.47;;;;;;;;;;5000599;28;20077;-81
2023/05/27 11:41:29;;;;;;;6.30;2.83;;;;;;;;;;4985512;28;20088;-81
2023/05/27 11:43:57;;;;;;;14.20;3.28;;;;;;;;;;5001186;28;20097;-81
2023/05/27 11:46:22;;;;;;;9.05;2.70;;;;;;;;;;4984536;28;20497;-80
2023/05/27 11:48:48;;;;;;;7.20;2.83;;;;;;;;;;4998148;28;20021;-82
2023/05/27 11:51:13;;;;;;;6.63;2.83;;;;;;;;;;4997640;28;20037;-82
2023/05/27 11:53:49;;;;;;;10.00;2.90;;;;;;;;;;4981890;28;20033;-81
2023/05/27 11:56:15;;;;;;;7.07;2.85;;;;;;;;;;4981438;28;20022;-81
2023/05/27 11:58:41;;;;;;;9.82;2.70;;;;;;;;;;5014952;28;20030;-81
2023/05/27 12:01:07;;;;;;;6.45;2.80;;;;;;;;;;4997617;28;20110;-81
2023/05/27 12:03:35;;;;;;;9.63;2.75;;;;;;;;;;5014925;28;20457;-81
2023/05/27 12:06:01;;;;;;;8.55;2.75;;;;;;;;;;4981140;28;20026;-81
2023/05/27 12:08:27;;;;;;;7.63;2.80;;;;;;;;;;4997800;28;20026;-81
2023/05/27 12:10:53;;;;;;;8.65;2.67;;;;;;;;;;4981028;28;20088;-81
2023/05/27 12:13:21;;;;;;;5.72;2.40;;;;;;;;;;4983026;28;20041;-82
2023/05/27 12:15:47;;;;;;;8.23;2.65;;;;;;;;;;4980960;28;20033;-81
2023/05/27 12:18:12;;;;;;;10.93;3.22;;;;;;;;;;5014163;28;20026;-82
2023/05/27 12:20:37;;;;;;;8.60;3.38;;;;;;;;;;4996574;28;20113;-82
2023/05/27 12:23:03;;;;;;;6.63;3.05;;;;;;;;;;4980229;28;20444;-82
2023/05/27 12:25:28;;;;;;;6.38;2.78;;;;;;;;;;4980324;28;20089;-82
2023/05/27 12:27:53;;;;;;;7.80;3.03;;;;;;;;;;4995892;28;20033;-83
2023/05/27 12:30:20;;;;;;;7.32;2.42;;;;;;;;;;5005676;28;20105;-82
2023/05/27 12:32:45;;;;;;;4.65;2.42;;;;;;;;;;5009834;28;20027;-82
2023/05/27 12:35:11;;;;;;;5.63;2.75;;;;;;;;;;5042193;28;20021;-81
2023/05/27 12:37:36;;;;;;;7.47;2.95;;;;;;;;;;5000102;28;20153;-83
2023/05/27 12:40:04;;;;;;;5.72;2.58;;;;;;;;;;5016212;28;20053;-82
2023/05/27 12:42:29;;;;;;;7.22;2.65;;;;;;;;;;4993723;28;20036;-82
2023/05/27 12:44:55;;;;;;;6.85;2.50;;;;;;;;;;5042351;28;20030;-83
2023/05/27 12:47:20;;;;;;;7.45;2.42;;;;;;;;;;5025892;28;20021;-83
2023/05/27 12:49:46;;;;;;;4.78;2.33;;;;;;;;;;5009680;28;20034;-82
2023/05/27 12:52:11;;;;;;;7.82;2.60;;;;;;;;;;5023502;28;20537;-83
2023/05/27 12:54:37;;;;;;;4.00;2.28;;;;;;;;;;5008336;28;20032;-83
2023/05/27 12:57:04;;;;;;;6.53;2.88;;;;;;;;;;5024766;28;20017;-83
2023/05/27 12:59:31;;;;;;;8.15;2.78;;;;;;;;;;5010083;28;20091;-83
2023/05/27 13:01:56;;;;;;;5.93;2.60;;;;;;;;;;5007034;28;20034;-83
2023/05/27 13:04:21;;;;;;;3.20;2.03;;;;;;;;;;4995098;28;20037;-82
2023/05/27 13:06:47;;;;;;;4.80;2.65;;;;;;;;;;5014681;28;20040;-83
2023/05/27 13:09:13;;;;;;;4.43;2.35;;;;;;;;;;4999160;28;20033;-81
2023/05/27 13:11:39;;;;;;;6.05;2.60;;;;;;;;;;5017118;28;20087;-82
2023/05/27 13:14:05;;;;;;;5.10;2.40;;;;;;;;;;4999480;28;20393;-82
2023/05/27 13:16:31;;;;;;;6.88;2.70;;;;;;;;;;5016210;28;20026;-81
2023/05/27 13:18:56;;;;;;;5.30;2.30;;;;;;;;;;5016438;28;20080;-82
2023/05/27 13:21:22;;;;;;;5.30;2.53;;;;;;;;;;5015916;28;20033;-82
2023/05/27 13:23:47;;;;;;;6.07;2.20;;;;;;;;;;4999457;28;20373;-81
2023/05/27 13:26:12;;;;;;;5.75;2.55;;;;;;;;;;4997368;28;20459;-81
2023/05/27 13:28:38;;;;;;;6.15;2.47;;;;;;;;;;5015849;28;20036;-81
2023/05/27 13:31:04;;;;;;;5.75;2.65;;;;;;;;;;5015732;28;20044;-81
2023/05/27 13:33:30;;;;;;;6.13;2.70;;;;;;;;;;5015759;28;20025;-82
2023/05/27 13:35:55;;;;;;;9.52;2.30;;;;;;;;;;5015440;28;20597;-81
2023/05/27 13:38:21;;;;;;;4.80;2.35;;;;;;;;;;5016229;28;20033;-82
2023/05/27 13:40:46;;;;;;;4.68;2.35;;;;;;;;;;5004380;28;20088;-81
2023/05/27 13:43:12;;;;;;;5.07;2.63;;;;;;;;;;5042073;28;20030;-81
2023/05/27 13:45:37;;;;;;;5.15;2.38;;;;;;;;;;5021580;28;20038;-81
2023/05/27 13:48:02;;;;;;;5.75;2.40;;;;;;;;;;5003231;28;20036;-82
2023/05/27 13:50:29;;;;;;;4.88;2.40;;;;;;;;;;5019523;28;20045;-81
2023/05/27 13:52:54;;;;;;;6.82;2.60;;;;;;;;;;5004003;28;20025;-82
2023/05/27 13:55:20;;;;;;;5.80;2.83;;;;;;;;;;5019375;28;20489;-81
2023/05/27 13:57:45;;;;;;;5.97;2.38;;;;;;;;;;5019884;28;20056;-81
2023/05/27 14:00:11;;;;;;;5.45;2.40;;;;;;;;;;5019387;28;20040;-82
2023/05/27 14:02:37;;;;;;;4.78;2.30;;;;;;;;;;5019510;28;20037;-82
2023/05/27 14:05:03;;;;;;;7.75;2.42;;;;;;;;;;5003607;28;20033;-82
2023/05/27 14:07:28;;;;;;;6.50;2.60;;;;;;;;;;5019471;28;20113;-81
2023/05/27 14:09:54;;;;;;;9.15;2.50;;;;;;;;;;5019600;28;20049;-81
2023/05/27 14:12:20;;;;;;;6.70;2.55;;;;;;;;;;5019333;28;20032;-81
2023/05/27 14:14:45;;;;;;;3.90;2.35;;;;;;;;;;5019025;28;20034;-81
2023/05/27 14:17:10;;;;;;;5.60;2.80;;;;;;;;;;5036312;28;20037;-81
2023/05/27 14:19:36;;;;;;;6.60;2.47;;;;;;;;;;5036213;28;20033;-81
2023/05/27 14:22:02;;;;;;;5.57;2.40;;;;;;;;;;5002313;28;20033;-81
2023/05/27 14:24:27;;;;;;;5.70;2.50;;;;;;;;;;5018719;28;20040;-81
2023/05/27 14:26:53;;;;;;;6.05;2.53;;;;;;;;;;5036048;28;20025;-82
2023/05/27 14:29:18;;;;;;;6.13;2.13;;;;;;;;;;5018411;28;20120;-82
2023/05/27 14:31:43;;;;;;;6.15;2.20;;;;;;;;;;5019591;28;20468;-82
2023/05/27 14:34:09;;;;;;;5.43;2.25;;;;;;;;;;5018391;28;20034;-82
2023/05/27 14:36:34;;;;;;;4.65;2.22;;;;;;;;;;5002034;28;20085;-82
2023/05/27 14:39:03;;;;;;;6.90;2.58;;;;;;;;;;5000171;28;20096;-82